createdAt,value
2023-06-01T00:02:48.295Z,100477.94
2023-06-01T00:05:50.992Z,100474.75
2023-06-01T00:08:53.041Z,100477.97
2023-06-01T00:11:55.894Z,100483.50
2023-06-01T00:14:58.838Z,100474.22
2023-06-01T00:18:02.240Z,100472.56
2023-06-01T00:21:04.458Z,100463.44
2023-06-01T00:24:07.033Z,100462.84
2023-06-01T00:27:09.108Z,100466.69
2023-06-01T00:30:11.748Z,100462.34
2023-06-01T00:33:13.889Z,100465.06
2023-06-01T00:36:16.550Z,100457.50
2023-06-01T00:39:18.813Z,100461.19
2023-06-01T00:42:21.303Z,100449.72
2023-06-01T00:45:24.107Z,100453.00
2023-06-01T00:48:26.565Z,100461.41
2023-06-01T00:51:28.897Z,100462.09
2023-06-01T00:54:31.228Z,100462.00
2023-06-01T00:57:34.010Z,100457.81
2023-06-01T01:00:36.632Z,100465.50
2023-06-01T01:03:39.501Z,100456.94
2023-06-01T01:06:57.352Z,100456.22
2023-06-01T01:10:06.270Z,100447.13
2023-06-01T01:13:27.586Z,100446.16
2023-06-01T01:16:32.832Z,100447.28
2023-06-01T01:19:59.768Z,100447.84
2023-06-01T01:23:20.229Z,100447.06
2023-06-01T01:26:43.227Z,100440.91
2023-06-01T01:29:46.953Z,100452.31
2023-06-01T01:32:51.730Z,100447.53
2023-06-01T01:35:54.418Z,100450.22
2023-06-01T01:38:57.008Z,100451.94
2023-06-01T01:41:59.039Z,100451.44
2023-06-01T01:45:02.540Z,100446.97
2023-06-01T01:48:10.117Z,100440.66
2023-06-01T01:51:16.844Z,100446.16
2023-06-01T01:54:19.618Z,100442.44
2023-06-01T01:57:23.659Z,100443.03
2023-06-01T02:00:26.097Z,100442.28
2023-06-01T02:03:29.208Z,100445.47
2023-06-01T02:06:31.727Z,100438.88
2023-06-01T02:09:35.147Z,100442.91
2023-06-01T02:12:37.431Z,100446.13
2023-06-01T02:15:40.227Z,100441.00
2023-06-01T02:18:42.744Z,100444.66
2023-06-01T02:21:46.128Z,100443.34
2023-06-01T02:24:48.815Z,100430.78
2023-06-01T02:27:51.279Z,100421.59
2023-06-01T02:30:53.694Z,100424.00
2023-06-01T02:33:56.325Z,100421.47
2023-06-01T02:37:00.178Z,100423.75
2023-06-01T02:40:02.636Z,100422.19
2023-06-01T02:43:05.009Z,100413.44
2023-06-01T02:46:07.257Z,100417.66
2023-06-01T02:49:10.305Z,100412.88
2023-06-01T02:52:12.292Z,100414.69
2023-06-01T02:55:14.608Z,100420.69
2023-06-01T02:58:17.591Z,100417.22
2023-06-01T03:01:22.222Z,100424.44
2023-06-01T03:04:24.601Z,100419.25
2023-06-01T03:07:27.350Z,100422.38
2023-06-01T03:10:29.611Z,100425.72
2023-06-01T03:13:33.364Z,100426.09
2023-06-01T03:16:38.751Z,100425.97
2023-06-01T03:19:41.670Z,100432.91
2023-06-01T03:22:45.317Z,100428.69
2023-06-01T03:25:48.020Z,100431.25
2023-06-01T03:28:50.066Z,100431.97
2023-06-01T03:31:52.644Z,100424.50
2023-06-01T03:34:55.509Z,100423.66
2023-06-01T03:37:57.846Z,100427.22
2023-06-01T03:41:00.064Z,100421.97
2023-06-01T03:44:02.769Z,100422.78
2023-06-01T03:47:05.078Z,100426.16
2023-06-01T03:50:09.669Z,100424.25
2023-06-01T03:53:11.870Z,100421.28
2023-06-01T03:56:14.460Z,100419.44
2023-06-01T03:59:17.273Z,100417.84
2023-06-01T04:02:20.481Z,100421.19
2023-06-01T04:05:23.381Z,100416.44
2023-06-01T04:08:26.803Z,100415.78
2023-06-01T04:11:29.685Z,100413.84
2023-06-01T04:14:32.069Z,100422.34
2023-06-01T04:17:36.701Z,100426.47
2023-06-01T04:20:39.346Z,100416.94
2023-06-01T04:23:43.466Z,100416.69
2023-06-01T04:26:48.828Z,100423.94
2023-06-01T04:29:52.673Z,100425.34
2023-06-01T04:32:55.204Z,100428.19
2023-06-01T04:35:58.321Z,100422.41
2023-06-01T04:39:05.607Z,100430.44
2023-06-01T04:42:09.314Z,100429.34
2023-06-01T04:45:12.045Z,100426.94
2023-06-01T04:48:24.013Z,100438.41
2023-06-01T04:51:27.941Z,100434.50
2023-06-01T04:54:31.365Z,100445.75
2023-06-01T04:57:35.217Z,100441.47
2023-06-01T05:00:37.794Z,100440.81
2023-06-01T05:03:42.595Z,100447.59
2023-06-01T05:06:45.377Z,100444.78
2023-06-01T05:09:48.078Z,100457.91
2023-06-01T05:12:51.041Z,100456.34
2023-06-01T05:16:02.715Z,100448.13
2023-06-01T05:19:05.384Z,100452.97
2023-06-01T05:22:09.533Z,100456.28
2023-06-01T05:25:13.119Z,100455.28
2023-06-01T05:28:16.287Z,100461.22
2023-06-01T05:31:18.993Z,100459.44
2023-06-01T05:34:22.674Z,100457.37
2023-06-01T05:37:25.478Z,100454.78
2023-06-01T05:40:28.218Z,100450.22
2023-06-01T05:43:33.169Z,100448.09
2023-06-01T05:46:37.276Z,100454.78
2023-06-01T05:49:39.750Z,100459.34
2023-06-01T05:52:45.241Z,100450.47
2023-06-01T05:55:53.857Z,100447.37
2023-06-01T07:53:44.413Z,100431.84
2023-06-01T07:56:48.578Z,100440.47
2023-06-01T07:59:55.213Z,100430.72
2023-06-01T08:06:55.681Z,100429.97
2023-06-01T08:13:31.806Z,100417.06
2023-06-01T08:16:36.629Z,100413.37
2023-06-01T08:19:40.945Z,100417.16
2023-06-01T08:22:44.903Z,100402.63
2023-06-01T08:25:47.240Z,100414.41
2023-06-01T08:28:57.194Z,100415.03
2023-06-01T08:32:01.347Z,100408.78
2023-06-01T08:35:06.324Z,100415.53
2023-06-01T08:38:08.821Z,100407.66
2023-06-01T08:41:31.277Z,100407.31
2023-06-01T08:44:36.937Z,100406.50
2023-06-01T08:47:40.044Z,100414.41
2023-06-01T08:50:42.137Z,100405.59
2023-06-01T08:53:45.697Z,100399.03
2023-06-01T08:56:48.616Z,100401.34
2023-06-01T08:59:51.223Z,100399.66
2023-06-01T09:02:53.602Z,100395.03
2023-06-01T09:06:00.354Z,100397.06
2023-06-01T09:09:02.998Z,100395.03
2023-06-01T09:12:21.797Z,100395.50
2023-06-01T09:15:27.038Z,100383.44
2023-06-01T09:18:32.382Z,100381.38
2023-06-01T09:21:34.700Z,100381.69
2023-06-01T09:24:37.187Z,100379.19
2023-06-01T09:28:05.604Z,100372.75
2023-06-01T09:31:11.809Z,100372.06
2023-06-01T09:34:19.922Z,100376.13
2023-06-01T09:37:22.595Z,100373.84
2023-06-01T09:40:24.811Z,100375.28
2023-06-01T09:43:45.295Z,100372.84
2023-06-01T09:51:01.623Z,100368.50
2023-06-01T10:12:45.333Z,100353.47
2023-06-01T10:15:47.935Z,100354.00
2023-06-01T10:18:51.625Z,100355.50
2023-06-01T10:21:54.604Z,100352.16
2023-06-01T10:24:59.642Z,100346.00
2023-06-01T10:28:04.700Z,100343.25
2023-06-01T10:31:26.179Z,100336.84
2023-06-01T10:34:40.938Z,100333.94
2023-06-01T10:53:34.351Z,100319.78
2023-06-01T10:57:16.248Z,100310.47
2023-06-01T11:30:25.128Z,100278.59
2023-06-01T11:33:34.792Z,100267.19
2023-06-01T11:36:56.669Z,100258.63
2023-06-01T11:40:06.434Z,100259.19
2023-06-01T11:43:08.481Z,100256.84
2023-06-01T11:46:21.642Z,100253.41
2023-06-01T11:49:24.601Z,100253.28
2023-06-01T11:52:27.340Z,100246.47
2023-06-01T11:55:29.618Z,100244.19
2023-06-01T11:58:34.853Z,100241.94
2023-06-01T12:01:43.304Z,100235.97
2023-06-01T12:04:54.650Z,100238.13
2023-06-01T12:07:56.783Z,100229.47
2023-06-01T12:10:59.577Z,100228.09
2023-06-01T12:14:02.568Z,100231.00
2023-06-01T12:17:06.410Z,100226.63
2023-06-01T12:20:09.644Z,100214.91
2023-06-01T12:23:15.603Z,100207.13
2023-06-01T12:26:17.745Z,100212.84
2023-06-01T12:29:35.080Z,100206.13
2023-06-01T12:32:40.777Z,100201.16
2023-06-01T12:35:52.164Z,100196.41
2023-06-01T12:38:54.686Z,100194.72
2023-06-01T12:41:57.475Z,100190.03
2023-06-01T12:45:00.234Z,100187.19
2023-06-01T12:48:03.273Z,100189.56
2023-06-01T12:51:06.314Z,100179.53
2023-06-01T12:54:09.036Z,100179.00
2023-06-01T12:57:13.777Z,100172.75
2023-06-01T13:00:16.406Z,100158.59
2023-06-01T13:03:18.477Z,100151.63
2023-06-01T13:06:21.216Z,100155.50
2023-06-01T13:09:23.237Z,100152.34
2023-06-01T13:12:25.751Z,100153.31
2023-06-01T13:15:27.788Z,100150.09
2023-06-01T13:18:30.251Z,100150.47
2023-06-01T13:21:34.325Z,100143.72
2023-06-01T13:24:53.315Z,100140.12
2023-06-01T13:27:59.019Z,100142.75
2023-06-01T13:31:01.702Z,100137.06
2023-06-01T13:34:04.564Z,100147.72
2023-06-01T13:37:07.134Z,100130.97
2023-06-01T13:40:09.334Z,100126.94
2023-06-01T13:43:11.734Z,100120.47
2023-06-01T13:46:14.259Z,100113.03
2023-06-01T13:49:16.652Z,100113.03
2023-06-01T13:52:19.300Z,100104.66
2023-06-01T13:55:21.848Z,100103.84
2023-06-01T13:58:25.624Z,100099.19
2023-06-01T14:01:28.005Z,100095.66
2023-06-01T14:04:30.792Z,100087.06
2023-06-01T14:07:32.810Z,100083.47
2023-06-01T14:10:38.114Z,100074.63
2023-06-01T14:13:40.637Z,100075.50
2023-06-01T14:16:44.510Z,100072.22
2023-06-01T14:19:48.616Z,100073.06
2023-06-01T14:22:51.049Z,100069.28
2023-06-01T14:25:53.065Z,100063.59
2023-06-01T14:28:55.747Z,100062.56
2023-06-01T14:31:57.850Z,100054.37
2023-06-01T14:35:00.297Z,100056.38
2023-06-01T14:38:02.696Z,100057.22
2023-06-01T14:41:05.330Z,100056.66
2023-06-01T14:44:07.755Z,100047.88
2023-06-01T14:47:12.627Z,100054.41
2023-06-01T14:50:14.931Z,100048.19
2023-06-01T14:53:17.306Z,100045.94
2023-06-01T14:56:19.357Z,100034.66
2023-06-01T14:59:21.674Z,100033.37
2023-06-01T15:02:30.604Z,100027.75
2023-06-01T15:05:39.407Z,100031.50
2023-06-01T15:08:43.373Z,100026.72
2023-06-01T15:11:46.712Z,100027.59
2023-06-01T15:14:51.078Z,100014.56
2023-06-01T15:17:54.097Z,100013.34
2023-06-01T15:20:56.620Z,100008.94
2023-06-01T15:24:03.373Z,100011.66
2023-06-01T15:27:43.591Z,100010.91
2023-06-01T15:31:15.309Z,100008.53
2023-06-01T15:34:37.359Z,100007.28
2023-06-01T15:37:49.803Z,100008.38
2023-06-01T15:41:15.968Z,99998.88
2023-06-01T15:44:31.256Z,99997.03
2023-06-01T15:47:51.766Z,99991.00
2023-06-01T15:51:09.681Z,99992.28
2023-06-01T15:54:25.063Z,99988.94
2023-06-01T15:57:46.948Z,99988.59
2023-06-01T16:00:58.412Z,99986.53
2023-06-01T16:04:07.481Z,99991.97
2023-06-01T16:07:10.205Z,99982.66
2023-06-01T16:13:38.660Z,99982.94
2023-06-01T16:17:06.289Z,99972.00
2023-06-01T16:20:43.687Z,99973.88
2023-06-01T16:24:03.258Z,99978.87
2023-06-01T16:27:11.390Z,99971.81
2023-06-01T16:30:27.645Z,99969.16
2023-06-01T16:37:23.520Z,99966.88
2023-06-01T16:41:16.980Z,99964.19
2023-06-01T16:45:37.365Z,99954.25
2023-06-01T22:07:26.981Z,99988.13
2023-06-01T22:23:14.076Z,99982.91
2023-06-01T22:57:44.428Z,99961.41
2023-06-01T23:01:29.371Z,99968.47
2023-06-01T23:09:34.029Z,99953.69
2023-06-01T23:17:25.688Z,99946.25
2023-06-01T23:28:34.329Z,99943.00
2023-06-01T23:43:14.683Z,99932.97
2023-06-01T23:54:22.628Z,99931.34
2023-06-01T23:57:32.663Z,99933.75
